»·PEaware :: N446SP KCMA-KSNA

N446SP :: KCMA-KSNA

FLIGHT INFORMATION

Flight Status: Arrived
Operator: Privately registered:
United States
More flights under this callsign
Pilot: Peter K. (33822)
Aircraft: CESSNA 172 SKYHAWK
(C172)
More flights by this aircraft type
Origin: KCMA Camarillo
United States
Destination: KSNA John Wayne-Orange Co
United States
More flights between these airports :: More routes between these airports
Route: LAX
File this flight plan on PilotEdge
Remarks:
Altitude:
(Current/Filed)
5,500ft
Speed:
(Current/Filed)
110kts
Departed: 22-Feb-21 09:54 PM
Arrived: 22-Feb-21 10:45 PM
Distance/Time
Traveled:
69nm/0:51
Distance/Time
To Go:
Arrived

Flight Plot

Page will automatically refresh every two minutes.

Flight plan parsing failed; only flown route is shown


Map Options




Map Legend


Flown Route
Filed Route
Departure Airport
Arrival Airport
Navaid (VOR, NDB)
Fix

Horizontal Profiles

Position Reports

Time Latitude Longitude Heading Altitude Ground
Speed
22-Feb-21 21:53 34.214317 -119.118907 274 816ft 84kts
22-Feb-21 21:54 34.230328 -119.126983 38 1643ft 69kts
22-Feb-21 21:55 34.233128 -119.101802 91 2171ft 88kts
22-Feb-21 21:56 34.232070 -119.071627 89 2664ft 90kts
22-Feb-21 21:57 34.227712 -119.042847 125 3192ft 84kts
22-Feb-21 21:58 34.215868 -119.023287 104 3921ft 55kts
22-Feb-21 21:59 34.220223 -119.036415 265 2623ft 82kts
22-Feb-21 22:00 34.207295 -119.047631 111 3127ft 78kts
22-Feb-21 22:01 34.212459 -119.021874 79 3644ft 83kts
22-Feb-21 22:02 34.213136 -118.993813 88 4129ft 83kts
22-Feb-21 22:03 34.212742 -118.965962 88 4616ft 82kts
22-Feb-21 22:04 34.212329 -118.938394 88 5105ft 81kts
22-Feb-21 22:05 34.211916 -118.909669 89 5374ft 95kts
22-Feb-21 22:06 34.211422 -118.875998 88 5380ft 105kts
22-Feb-21 22:06 34.211009 -118.845637 89 5380ft 111kts
22-Feb-21 22:08 34.210331 -118.800995 89 5372ft 114kts
22-Feb-21 22:09 34.209717 -118.762298 89 5364ft 115kts
22-Feb-21 22:09 34.209200 -118.729992 89 5357ft 115kts
22-Feb-21 22:11 34.208428 -118.685288 89 5343ft 111kts
22-Feb-21 22:11 34.207856 -118.654902 89 5332ft 106kts
22-Feb-21 22:12 34.207717 -118.620043 87 5323ft 102kts
22-Feb-21 22:13 34.207877 -118.585999 87 5315ft 100kts
22-Feb-21 22:15 34.207624 -118.545300 103 5348ft 108kts
22-Feb-21 22:16 34.186877 -118.520850 182 5300ft 117kts
22-Feb-21 22:16 34.161566 -118.528511 195 5373ft 100kts
22-Feb-21 22:17 34.135966 -118.534887 167 5392ft 92kts
22-Feb-21 22:18 34.110974 -118.522663 154 5387ft 105kts
22-Feb-21 22:19 34.082429 -118.507962 154 5367ft 115kts
22-Feb-21 22:20 34.053407 -118.493054 154 5355ft 110kts
22-Feb-21 22:21 34.025412 -118.478717 154 5345ft 108kts
22-Feb-21 22:22 33.997847 -118.464739 155 5349ft 105kts
22-Feb-21 22:23 33.971192 -118.451283 155 5361ft 103kts
22-Feb-21 22:24 33.944235 -118.437684 155 5359ft 108kts
22-Feb-21 22:25 33.915996 -118.422703 150 5359ft 112kts
22-Feb-21 22:26 33.895901 -118.393902 127 5363ft 114kts
22-Feb-21 22:27 33.872949 -118.366494 136 5352ft 116kts
22-Feb-21 22:28 33.848084 -118.339945 137 5343ft 116kts
22-Feb-21 22:29 33.823661 -118.313943 137 5334ft 116kts
22-Feb-21 22:30 33.799245 -118.287975 137 5326ft 116kts
22-Feb-21 22:31 33.774781 -118.261973 137 5318ft 116kts
22-Feb-21 22:32 33.750730 -118.236422 136 5358ft 114kts
22-Feb-21 22:33 33.733878 -118.205380 94 5373ft 114kts
22-Feb-21 22:34 33.732273 -118.166618 90 5368ft 115kts
22-Feb-21 22:35 33.730904 -118.127855 91 5360ft 115kts
22-Feb-21 22:36 33.729189 -118.088910 92 4719ft 127kts
22-Feb-21 22:37 33.727530 -118.044939 91 3724ft 134kts
22-Feb-21 22:38 33.725867 -118.000150 91 2720ft 134kts
22-Feb-21 22:39 33.724194 -117.955285 91 1713ft 134kts
22-Feb-21 22:40 33.715102 -117.914411 98 1280ft 108kts
22-Feb-21 22:41 33.710002 -117.880967 116 984ft 102kts
22-Feb-21 22:42 33.694721 -117.859001 176 433ft 76kts
22-Feb-21 22:43 33.676770 -117.868235 206 60ft 43kts
22-Feb-21 22:44 33.675946 -117.869711 301 60ft 0kts
22-Feb-21 22:45 33.676711 -117.870255 301 60ft 0kts
22-Feb-21 22:46 33.676711 -117.870255 301 60ft 0kts
22-Feb-21 22:47 33.676711 -117.870255 301 60ft 0kts
22-Feb-21 22:48 33.676711 -117.870255 301 60ft 0kts
22-Feb-21 22:49 33.676711 -117.870255 301 60ft 0kts

Navigation Log

Ident Type
Flight plan parsing failed, navigation log unavailable